ロサンゼルス の空港の天気 - METARとTAF

ロサンゼルス国際空港 ( KLAX / LAX ) - アメリカ カリフォルニア州ロサンゼルス
飛行場実況気象(Metar)
観測時間08/18 05:53 PDT (08/18 12:53 UTC)
風向・風速西 3m/s
視程1200m
天気現象もや
全天を覆う雲 鉛直視程 90m
気温17.2℃
湿度93%
気圧1013.1hPa
METARKLAX 181253Z 28006KT 3/4SM R25L/P6000FT BR VV003 17/16 A2992 RMK AO2 SLP131 VIS N-E 1/4 VIS SE 1 1/2 T01720161
過去の天気等 Google飛行場航空写真 Wunderground天気予報

過去48時間のMETAR

飛行場予報(TAF)
発表時間: 8/18 05:48 PDT (8/18 12:48 UTC)
予報対象時間: 18日6時 PDT ~ 19日11時 PDT
風向・風速西 3m/s
視程1210m
天気現象もや
全天を覆う雲 鉛直視程 60m
18日8時 PDT から
風向・風速西 3m/s
視程6440m
天気現象もや
全天の8割程度の雲 雲底高度 150m
18日10時 PDT から
風向・風速西 4m/s
視程10km以上
なし
18日13時 PDT から
風向・風速西 7m/s
視程10km以上
なし
18日21時 PDT から
風向・風速西 4m/s
視程10km以上
なし
19日2時 PDT から
風向・風速不定 2m/s
視程8050m
天気現象もや
全天を覆う雲 雲底高度 150m
19日9時 PDT から
風向・風速西 3m/s
視程10km以上
天気現象煙霧
少しの雲 雲底高度 210m
KLAX 181248Z 1813/1918 26006KT 3/4SM BR VV002
FM181500 26006KT 4SM BR BKN005
FM181700 26008KT P6SM SKC
FM182000 26014KT P6SM SKC
FM190400 26008KT P6SM SKC
FM190900 VRB03KT 5SM BR OVC005
FM191600 26006KT 6SM HZ FEW007